Time;durP1;ratioP1;P1;durP2;ratioP2;P2;SDS_P1;SDS_P2;PMS_P1;PMS_P2;Temp;Humidity;BMP_temperature;BMP_pressure;BME280_temperature;BME280_humidity;BME280_pressure;Samples;Min_cycle;Max_cycle;Signal;HPM_P1;HPM_P2
2024/01/29 00:01:43;;;;;;;7.00;3.00;;;5.10;99.90;;;;;;5093881;28;20188;-42
2024/01/29 00:04:08;;;;;;;6.70;2.50;;;5.20;99.90;;;;;;5093807;28;20260;-43
2024/01/29 00:06:34;;;;;;;5.23;3.37;;;5.20;99.90;;;;;;5093657;28;20313;-43
2024/01/29 00:09:00;;;;;;;6.77;3.10;;;5.20;99.90;;;;;;5094210;28;20277;-42
2024/01/29 00:11:25;;;;;;;5.90;2.73;;;5.20;99.90;;;;;;5094012;28;20214;-41
2024/01/29 00:13:54;;;;;;;6.73;2.93;;;5.20;99.90;;;;;;5093942;28;20670;-44
2024/01/29 00:16:23;;;;;;;5.13;3.30;;;5.20;99.90;;;;;;5093811;28;20208;-41
2024/01/29 00:18:49;;;;;;;7.37;3.07;;;5.20;99.90;;;;;;5093595;28;20672;-43
2024/01/29 00:21:14;;;;;;;4.90;2.70;;;5.20;99.90;;;;;;5093658;28;20180;-42
2024/01/29 00:23:40;;;;;;;4.43;2.70;;;5.20;99.90;;;;;;5093535;28;20190;-44
2024/01/29 00:26:05;;;;;;;3.30;2.50;;;5.20;99.90;;;;;;5093512;28;20601;-43
2024/01/29 00:28:31;;;;;;;4.90;2.83;;;5.20;99.90;;;;;;5093432;28;20176;-44
2024/01/29 00:30:57;;;;;;;5.73;3.63;;;5.20;99.90;;;;;;5093801;28;20170;-42
2024/01/29 00:33:24;;;;;;;4.37;2.77;;;5.20;99.90;;;;;;5093463;28;20178;-44
2024/01/29 00:35:49;;;;;;;4.97;2.97;;;5.20;99.90;;;;;;5093415;28;20719;-41
2024/01/29 00:38:15;;;;;;;6.97;2.63;;;5.20;99.90;;;;;;5093617;28;20204;-43
2024/01/29 00:40:40;;;;;;;5.90;2.60;;;5.20;99.90;;;;;;5093418;28;20238;-43
2024/01/29 00:43:11;;;;;;;5.17;2.70;;;5.30;99.90;;;;;;5093564;28;20196;-44
2024/01/29 00:45:37;;;;;;;3.80;2.90;;;5.30;99.90;;;;;;5093366;28;20265;-40
2024/01/29 00:48:06;;;;;;;5.90;2.40;;;5.30;99.90;;;;;;5093329;28;20680;-43
2024/01/29 00:50:31;;;;;;;4.57;2.80;;;5.30;99.90;;;;;;5093288;28;20181;-43
2024/01/29 00:52:57;;;;;;;4.67;3.10;;;5.30;99.90;;;;;;5093276;28;20195;-42
2024/01/29 00:55:26;;;;;;;3.80;3.10;;;5.30;99.90;;;;;;5093519;28;20216;-43
2024/01/29 00:57:54;;;;;;;5.60;3.10;;;5.30;99.90;;;;;;5093144;28;20200;-44
2024/01/29 01:00:21;;;;;;;7.43;3.07;;;5.20;99.90;;;;;;5093252;28;20183;-44
2024/01/29 01:02:47;;;;;;;8.03;3.43;;;5.20;99.90;;;;;;5093185;28;20273;-43
2024/01/29 01:05:14;;;;;;;5.13;3.10;;;5.20;99.90;;;;;;5097038;28;20264;-43
2024/01/29 01:07:39;;;;;;;6.97;3.00;;;5.20;99.90;;;;;;5097684;28;20202;-44
2024/01/29 01:10:20;;;;;;;3.40;2.90;;;5.10;99.90;;;;;;5097133;28;20192;-43
2024/01/29 01:12:45;;;;;;;7.40;3.40;;;5.10;99.90;;;;;;5097069;28;20195;-40
2024/01/29 01:15:11;;;;;;;6.07;3.03;;;5.10;99.90;;;;;;5097294;28;20185;-42
2024/01/29 01:17:36;;;;;;;5.50;3.00;;;5.00;99.90;;;;;;5096867;28;20622;-41
2024/01/29 01:20:03;;;;;;;5.83;3.10;;;5.10;99.90;;;;;;5097166;28;20629;-41
2024/01/29 01:22:31;;;;;;;6.93;3.17;;;5.00;99.90;;;;;;5097782;28;20180;-43
2024/01/29 01:24:57;;;;;;;9.83;2.90;;;5.10;99.90;;;;;;5097106;28;20629;-43
2024/01/29 01:27:23;;;;;;;6.43;3.03;;;5.10;99.90;;;;;;5096688;28;20208;-40
2024/01/29 01:29:48;;;;;;;5.70;3.40;;;5.10;99.90;;;;;;5096870;28;20546;-42
2024/01/29 01:32:14;;;;;;;4.93;2.87;;;5.10;99.90;;;;;;5095492;28;20205;-43
2024/01/29 01:34:40;;;;;;;5.83;2.80;;;5.10;99.90;;;;;;5096698;28;20205;-41
2024/01/29 01:37:10;;;;;;;7.47;3.10;;;5.10;99.90;;;;;;5095395;28;20205;-42
2024/01/29 01:39:35;;;;;;;6.37;2.57;;;5.10;99.90;;;;;;5096566;28;20216;-42
2024/01/29 01:42:01;;;;;;;4.47;3.33;;;5.10;99.90;;;;;;5096561;28;20205;-40
2024/01/29 01:44:27;;;;;;;6.90;3.07;;;5.20;99.90;;;;;;5096446;28;20178;-42
2024/01/29 01:46:53;;;;;;;4.13;2.83;;;5.20;99.90;;;;;;5096470;28;20216;-42
2024/01/29 01:49:19;;;;;;;8.13;3.57;;;5.20;99.90;;;;;;5095275;28;20733;-44
2024/01/29 01:51:51;;;;;;;5.00;3.03;;;5.20;99.90;;;;;;5095118;28;20555;-42
2024/01/29 01:54:17;;;;;;;3.50;2.90;;;5.10;99.90;;;;;;5094907;28;20194;-44
2024/01/29 01:56:44;;;;;;;5.37;2.80;;;5.10;99.90;;;;;;5096107;28;20683;-43
2024/01/29 01:59:11;;;;;;;4.53;2.80;;;5.10;99.90;;;;;;5096177;28;20769;-43
2024/01/29 02:01:38;;;;;;;5.30;3.50;;;5.10;99.90;;;;;;5097253;28;20188;-44
2024/01/29 02:04:07;;;;;;;4.37;3.03;;;5.10;99.90;;;;;;5096159;28;20193;-42
2024/01/29 02:06:33;;;;;;;4.00;3.30;;;5.00;99.90;;;;;;5096060;28;20206;-41
2024/01/29 02:09:00;;;;;;;4.10;2.80;;;4.90;99.90;;;;;;5096040;28;20183;-42
2024/01/29 02:11:25;;;;;;;4.67;2.80;;;4.80;99.90;;;;;;5095923;28;20203;-41
2024/01/29 02:13:51;;;;;;;4.83;3.03;;;4.80;99.90;;;;;;5095373;28;20629;-42
2024/01/29 02:16:17;;;;;;;6.03;3.50;;;4.70;99.90;;;;;;5096312;28;20238;-43
2024/01/29 02:18:48;;;;;;;6.13;3.10;;;4.70;99.90;;;;;;5094769;28;20248;-41
2024/01/29 02:21:14;;;;;;;4.73;3.30;;;4.60;99.90;;;;;;5096055;28;20268;-41
2024/01/29 02:23:44;;;;;;;6.07;3.10;;;4.60;99.90;;;;;;5094894;28;20595;-41
2024/01/29 02:26:10;;;;;;;8.20;3.90;;;4.60;99.90;;;;;;5095703;28;20537;-42
2024/01/29 02:28:35;;;;;;;6.37;3.47;;;4.60;99.90;;;;;;5096073;28;20203;-42
2024/01/29 02:31:01;;;;;;;8.77;3.37;;;4.60;99.90;;;;;;5096169;28;20170;-41
2024/01/29 02:33:27;;;;;;;6.43;3.43;;;4.60;99.90;;;;;;5094710;28;20176;-42
2024/01/29 02:35:56;;;;;;;4.90;3.30;;;4.60;99.90;;;;;;5094156;28;20259;-42
2024/01/29 02:38:21;;;;;;;6.10;3.10;;;4.70;99.90;;;;;;5096021;28;20195;-43
2024/01/29 02:40:47;;;;;;;5.13;3.17;;;4.70;99.90;;;;;;5095716;28;20230;-42
2024/01/29 02:43:13;;;;;;;4.80;2.87;;;4.70;99.90;;;;;;5095268;28;20275;-41
2024/01/29 02:45:39;;;;;;;6.43;3.23;;;4.70;99.90;;;;;;5094167;28;20212;-43
2024/01/29 02:48:05;;;;;;;5.03;3.43;;;4.60;99.90;;;;;;5095451;28;20657;-43
2024/01/29 02:50:30;;;;;;;6.07;3.40;;;4.70;99.90;;;;;;5095202;28;20188;-44
2024/01/29 02:52:57;;;;;;;3.33;2.40;;;4.70;99.90;;;;;;5096051;28;20182;-41
2024/01/29 02:55:23;;;;;;;6.73;3.40;;;4.70;99.90;;;;;;5095340;28;20279;-41
2024/01/29 02:57:49;;;;;;;6.73;3.40;;;4.70;99.90;;;;;;5095030;28;20291;-43
2024/01/29 03:00:14;;;;;;;6.00;3.20;;;4.60;99.90;;;;;;5095149;28;20178;-42
2024/01/29 03:02:40;;;;;;;5.60;3.23;;;4.60;99.90;;;;;;5095483;28;20657;-42
2024/01/29 03:05:07;;;;;;;7.27;3.57;;;4.60;99.90;;;;;;5095030;28;20162;-42
2024/01/29 03:07:32;;;;;;;4.87;3.37;;;4.50;99.90;;;;;;5095211;28;20570;-40
2024/01/29 03:09:58;;;;;;;5.97;3.17;;;4.50;99.90;;;;;;5093660;28;20188;-42
2024/01/29 03:12:26;;;;;;;5.43;3.13;;;4.50;99.90;;;;;;5095105;28;20185;-43
2024/01/29 03:14:52;;;;;;;5.93;3.33;;;4.50;99.90;;;;;;5095064;28;20542;-42
2024/01/29 03:17:17;;;;;;;5.17;3.17;;;4.50;99.90;;;;;;5093123;28;20303;-42
2024/01/29 03:19:43;;;;;;;7.83;3.50;;;4.50;99.90;;;;;;5094914;28;20181;-43
2024/01/29 03:22:09;;;;;;;5.97;3.60;;;4.50;99.90;;;;;;5094606;28;20182;-41
2024/01/29 03:24:38;;;;;;;5.77;3.50;;;4.50;99.90;;;;;;5094609;28;20174;-42
2024/01/29 03:27:03;;;;;;;6.83;3.50;;;4.40;99.90;;;;;;5093536;28;20210;-40
2024/01/29 03:29:32;;;;;;;5.00;3.63;;;4.40;99.90;;;;;;5094538;28;20172;-42
2024/01/29 03:32:00;;;;;;;5.33;3.33;;;4.30;99.90;;;;;;5094707;28;20181;-40
2024/01/29 03:34:26;;;;;;;7.80;3.70;;;4.20;99.90;;;;;;5094507;28;20265;-41
2024/01/29 03:36:52;;;;;;;4.33;2.93;;;4.10;99.90;;;;;;5094753;28;20295;-42
2024/01/29 03:39:17;;;;;;;5.07;3.13;;;4.10;99.90;;;;;;5094309;28;20210;-42
2024/01/29 03:41:43;;;;;;;4.70;2.80;;;4.10;99.90;;;;;;5094552;28;20185;-42
2024/01/29 03:44:09;;;;;;;6.70;3.60;;;4.10;99.90;;;;;;5094428;28;20198;-41
2024/01/29 03:46:34;;;;;;;6.97;3.47;;;4.10;99.90;;;;;;5092860;28;20203;-40
2024/01/29 03:49:00;;;;;;;5.83;3.40;;;4.10;99.90;;;;;;5094110;28;20189;-41
2024/01/29 03:51:25;;;;;;;7.63;3.03;;;4.10;99.90;;;;;;5093979;28;20176;-41
2024/01/29 03:53:52;;;;;;;5.23;3.57;;;4.10;99.90;;;;;;5094048;28;20193;-40
2024/01/29 03:56:18;;;;;;;4.77;3.03;;;4.10;99.90;;;;;;5093859;28;20689;-41
2024/01/29 03:58:47;;;;;;;6.23;3.20;;;4.20;99.90;;;;;;5093970;28;20184;-40
2024/01/29 04:01:12;;;;;;;6.60;3.07;;;4.20;99.90;;;;;;5093987;28;20725;-39
2024/01/29 04:03:39;;;;;;;6.20;2.97;;;4.20;99.90;;;;;;5093910;28;20212;-41
2024/01/29 04:06:06;;;;;;;5.77;3.37;;;4.20;99.90;;;;;;5093807;28;20243;-41
2024/01/29 04:08:31;;;;;;;5.87;3.40;;;4.30;99.90;;;;;;5094156;28;20187;-42
2024/01/29 04:10:57;;;;;;;4.23;3.47;;;4.30;99.90;;;;;;5094039;28;20172;-43
2024/01/29 04:13:24;;;;;;;6.40;3.70;;;4.30;99.90;;;;;;5093617;28;20664;-42
2024/01/29 04:15:49;;;;;;;7.40;3.07;;;4.30;99.90;;;;;;5093613;28;20569;-44
2024/01/29 04:18:15;;;;;;;3.73;3.30;;;4.30;99.90;;;;;;5093888;28;20208;-42
2024/01/29 04:20:40;;;;;;;3.27;2.07;;;4.30;99.90;;;;;;5093632;28;20173;-43
2024/01/29 04:23:08;;;;;;;6.13;3.30;;;4.30;99.90;;;;;;5092377;28;20183;-41
2024/01/29 04:25:33;;;;;;;10.17;3.27;;;4.30;99.90;;;;;;5093738;28;20236;-43
2024/01/29 04:28:02;;;;;;;5.53;2.80;;;4.30;99.90;;;;;;5093585;28;20180;-42
2024/01/29 04:30:28;;;;;;;4.77;3.30;;;4.30;99.90;;;;;;5093796;28;20189;-42
2024/01/29 04:32:53;;;;;;;4.33;2.90;;;4.30;99.90;;;;;;5092350;28;20186;-43
2024/01/29 04:35:19;;;;;;;6.83;3.23;;;4.30;99.90;;;;;;5093273;28;20566;-42
2024/01/29 04:37:44;;;;;;;8.93;3.60;;;4.30;99.90;;;;;;5093292;28;20599;-43
2024/01/29 04:40:11;;;;;;;8.37;3.73;;;4.40;99.90;;;;;;5093846;28;20256;-43
2024/01/29 04:42:38;;;;;;;4.23;3.30;;;4.30;99.90;;;;;;5093387;28;20218;-42
2024/01/29 04:45:04;;;;;;;9.93;3.43;;;4.30;99.90;;;;;;5093340;28;20259;-42
2024/01/29 04:47:30;;;;;;;4.00;3.37;;;4.30;99.90;;;;;;5093348;28;20227;-43
2024/01/29 04:49:55;;;;;;;5.70;3.50;;;4.20;99.90;;;;;;5093466;28;20665;-42
2024/01/29 04:52:22;;;;;;;7.17;3.67;;;4.20;99.90;;;;;;5093367;28;20188;-42
2024/01/29 04:54:48;;;;;;;6.00;3.73;;;4.10;99.90;;;;;;5093539;28;20580;-42
2024/01/29 04:57:20;;;;;;;6.63;3.37;;;4.10;99.90;;;;;;5093117;28;20216;-44
2024/01/29 04:59:46;;;;;;;5.93;3.30;;;4.00;99.90;;;;;;5093250;28;20652;-42
2024/01/29 05:02:11;;;;;;;6.67;3.50;;;4.00;99.90;;;;;;5093223;28;20187;-42
2024/01/29 05:04:37;;;;;;;5.60;3.27;;;4.00;99.90;;;;;;5093498;28;20172;-43
2024/01/29 05:07:02;;;;;;;5.03;3.30;;;3.90;99.90;;;;;;5093103;28;20200;-42
2024/01/29 05:09:31;;;;;;;4.93;3.47;;;3.80;99.90;;;;;;5093474;28;20177;-43
2024/01/29 05:11:59;;;;;;;7.43;3.47;;;3.80;99.90;;;;;;5093133;28;20181;-42
2024/01/29 05:14:27;;;;;;;6.17;3.53;;;3.80;99.90;;;;;;5092967;28;20184;-44
2024/01/29 05:16:52;;;;;;;5.97;3.37;;;3.80;99.90;;;;;;5092884;28;20747;-43
2024/01/29 05:19:18;;;;;;;5.70;3.40;;;3.80;99.90;;;;;;5093646;28;20252;-42
2024/01/29 05:21:44;;;;;;;7.33;3.20;;;3.90;99.90;;;;;;5093097;28;20162;-43
2024/01/29 05:24:13;;;;;;;8.07;3.10;;;3.80;99.90;;;;;;5092999;28;20173;-41
2024/01/29 05:26:41;;;;;;;6.70;3.50;;;3.80;99.90;;;;;;5092929;28;20202;-40
2024/01/29 05:29:07;;;;;;;5.47;3.30;;;3.80;99.90;;;;;;5093225;28;20211;-40
2024/01/29 05:31:33;;;;;;;5.47;3.70;;;3.70;99.90;;;;;;5092988;28;20210;-41
2024/01/29 05:33:59;;;;;;;6.40;3.17;;;3.60;99.90;;;;;;5091662;28;20246;-43
2024/01/29 05:36:24;;;;;;;4.83;3.27;;;3.60;99.90;;;;;;5092595;28;20212;-43
2024/01/29 05:38:53;;;;;;;6.40;3.30;;;3.50;99.90;;;;;;5092819;28;20171;-42
2024/01/29 05:41:23;;;;;;;5.47;3.30;;;3.40;99.90;;;;;;5093082;28;20207;-41
2024/01/29 05:43:49;;;;;;;5.13;3.83;;;3.40;99.90;;;;;;5091809;28;20635;-40
2024/01/29 05:46:15;;;;;;;7.17;3.67;;;3.30;99.90;;;;;;5091259;28;20202;-42
2024/01/29 05:48:41;;;;;;;4.40;3.33;;;3.30;99.90;;;;;;5093361;28;20182;-42
2024/01/29 05:51:06;;;;;;;5.37;3.40;;;3.30;99.90;;;;;;5096371;28;20171;-42
2024/01/29 05:53:32;;;;;;;4.40;3.73;;;3.30;99.90;;;;;;5097091;28;20187;-43
2024/01/29 05:55:57;;;;;;;6.10;3.07;;;3.20;99.90;;;;;;5096629;28;20203;-41
2024/01/29 05:58:24;;;;;;;4.87;3.50;;;3.30;99.90;;;;;;5096244;28;20234;-43
2024/01/29 06:00:51;;;;;;;6.07;3.83;;;3.30;99.90;;;;;;5096326;28;20199;-41
2024/01/29 06:03:19;;;;;;;5.53;3.47;;;3.30;99.90;;;;;;5094951;28;20179;-39
2024/01/29 06:05:48;;;;;;;6.67;3.87;;;3.40;99.90;;;;;;5096080;28;20299;-40
2024/01/29 06:08:18;;;;;;;7.00;3.50;;;3.30;99.90;;;;;;5096480;28;20548;-41
2024/01/29 06:10:43;;;;;;;4.43;3.70;;;3.30;99.90;;;;;;5078072;28;20615;-42
2024/01/29 06:13:09;;;;;;;6.10;3.47;;;3.30;99.90;;;;;;5095171;28;20206;-43
2024/01/29 06:15:35;;;;;;;5.13;3.73;;;3.30;99.90;;;;;;5096261;28;20587;-41
2024/01/29 06:18:00;;;;;;;5.07;3.37;;;3.20;99.90;;;;;;5096188;28;20238;-42
2024/01/29 06:20:26;;;;;;;7.93;3.47;;;3.20;99.90;;;;;;5095960;28;20182;-41
2024/01/29 06:22:52;;;;;;;5.43;4.00;;;3.10;99.90;;;;;;5096059;28;20183;-41
2024/01/29 06:25:19;;;;;;;5.90;3.90;;;3.10;99.90;;;;;;5094733;28;20184;-42
2024/01/29 06:27:46;;;;;;;6.00;4.43;;;3.00;99.90;;;;;;5094525;28;20183;-41
2024/01/29 06:30:12;;;;;;;7.00;3.97;;;3.00;99.90;;;;;;5095572;28;20180;-43
2024/01/29 06:32:38;;;;;;;9.90;6.30;;;3.00;99.90;;;;;;5095876;28;20591;-42
2024/01/29 06:35:06;;;;;;;9.20;5.20;;;2.90;99.90;;;;;;5095587;28;20191;-40
2024/01/29 06:37:33;;;;;;;7.73;4.50;;;2.90;99.90;;;;;;5095453;28;20211;-41
2024/01/29 06:40:00;;;;;;;6.67;5.00;;;2.80;99.90;;;;;;5095902;28;20530;-40
2024/01/29 06:42:25;;;;;;;7.23;4.53;;;2.80;99.90;;;;;;5095706;28;20643;-41
2024/01/29 06:44:52;;;;;;;5.67;4.00;;;2.80;99.90;;;;;;5095081;28;20198;-41
2024/01/29 06:47:17;;;;;;;6.27;3.87;;;2.80;99.90;;;;;;5095390;28;20192;-42
2024/01/29 06:49:46;;;;;;;8.00;4.87;;;2.80;99.90;;;;;;5095498;28;20320;-43
2024/01/29 06:52:15;;;;;;;10.17;6.17;;;2.80;99.90;;;;;;5095368;28;20193;-42
2024/01/29 06:54:40;;;;;;;8.40;5.90;;;2.80;99.90;;;;;;5095620;28;20186;-42
2024/01/29 06:57:06;;;;;;;12.40;5.50;;;2.80;99.90;;;;;;5095031;28;20202;-44
2024/01/29 06:59:35;;;;;;;7.87;4.20;;;2.80;99.90;;;;;;5095128;28;20178;-42
2024/01/29 07:02:08;;;;;;;5.17;3.90;;;2.70;99.90;;;;;;5095401;28;20175;-42
2024/01/29 07:04:34;;;;;;;6.00;3.73;;;2.60;99.90;;;;;;5095084;28;20258;-42
2024/01/29 07:07:00;;;;;;;4.97;3.97;;;2.60;99.90;;;;;;5095129;28;20345;-42
2024/01/29 07:09:25;;;;;;;8.87;6.57;;;2.60;99.90;;;;;;5095099;28;20183;-40
2024/01/29 07:11:52;;;;;;;10.47;6.53;;;2.60;99.90;;;;;;5094770;28;20202;-42
2024/01/29 07:14:17;;;;;;;7.27;4.70;;;2.50;99.90;;;;;;5095298;28;20198;-41
2024/01/29 07:16:49;;;;;;;6.03;3.83;;;2.50;99.90;;;;;;5094911;28;20238;-40
2024/01/29 07:19:17;;;;;;;6.67;4.20;;;2.40;99.90;;;;;;5095668;28;20619;-42
2024/01/29 07:21:43;;;;;;;7.77;4.50;;;2.40;99.90;;;;;;5094967;28;20228;-39
2024/01/29 07:24:09;;;;;;;9.43;5.93;;;2.40;99.90;;;;;;5094963;28;20550;-43
2024/01/29 07:26:38;;;;;;;9.27;6.07;;;2.40;99.90;;;;;;5094757;28;20195;-41
2024/01/29 07:29:03;;;;;;;8.07;4.60;;;2.40;99.90;;;;;;5094542;28;20167;-43
2024/01/29 07:31:29;;;;;;;6.80;4.23;;;2.30;99.90;;;;;;5094477;28;20220;-41
2024/01/29 07:33:55;;;;;;;5.50;4.30;;;2.30;99.90;;;;;;5093277;28;20179;-41
2024/01/29 07:36:22;;;;;;;6.20;4.30;;;2.30;99.90;;;;;;5092957;28;20221;-41
2024/01/29 07:38:48;;;;;;;8.93;4.13;;;2.30;99.90;;;;;;5094206;28;20183;-42
2024/01/29 07:41:14;;;;;;;6.00;4.03;;;2.30;99.90;;;;;;5093202;28;20229;-41
2024/01/29 07:43:42;;;;;;;4.73;3.77;;;2.20;99.90;;;;;;5076175;28;20183;-43
2024/01/29 07:46:10;;;;;;;5.93;3.97;;;2.30;99.90;;;;;;5094107;28;20201;-43
2024/01/29 07:48:35;;;;;;;6.23;4.00;;;2.30;99.90;;;;;;5094628;28;20638;-41
2024/01/29 07:51:01;;;;;;;5.87;4.23;;;2.40;99.90;;;;;;5094295;28;20199;-42
2024/01/29 07:53:27;;;;;;;7.10;4.60;;;2.50;99.90;;;;;;5094158;28;20251;-40
2024/01/29 07:55:52;;;;;;;5.83;4.27;;;2.50;99.90;;;;;;5092878;28;20216;-41
2024/01/29 07:58:21;;;;;;;7.83;4.73;;;2.60;99.90;;;;;;5093923;28;20666;-42
2024/01/29 08:00:50;;;;;;;8.57;5.30;;;2.70;99.90;;;;;;5094036;28;20195;-41
2024/01/29 08:03:15;;;;;;;7.87;4.40;;;2.80;99.90;;;;;;5094038;28;20175;-42
2024/01/29 08:05:41;;;;;;;8.03;4.73;;;2.90;99.90;;;;;;5093845;28;20202;-41
2024/01/29 08:08:07;;;;;;;6.70;4.47;;;2.90;99.90;;;;;;5094070;28;20241;-41
2024/01/29 08:10:33;;;;;;;10.10;4.70;;;3.00;99.90;;;;;;5093784;28;20187;-42
2024/01/29 08:12:59;;;;;;;7.17;4.77;;;3.00;99.90;;;;;;5093563;28;20596;-41
2024/01/29 08:15:28;;;;;;;6.53;4.37;;;3.10;99.90;;;;;;5092342;28;20187;-39
2024/01/29 08:17:55;;;;;;;6.60;4.63;;;3.10;99.90;;;;;;5093863;28;20207;-41
2024/01/29 08:20:21;;;;;;;8.00;4.90;;;3.20;99.90;;;;;;5093606;28;20178;-42
2024/01/29 08:22:47;;;;;;;10.47;4.53;;;3.30;99.90;;;;;;5093682;28;20167;-42
2024/01/29 08:25:13;;;;;;;8.10;5.33;;;3.30;99.90;;;;;;5093852;28;20639;-40
2024/01/29 08:27:44;;;;;;;9.43;5.23;;;3.40;99.90;;;;;;5093722;28;20277;-43
2024/01/29 08:30:13;;;;;;;8.53;5.27;;;3.50;99.90;;;;;;5093545;28;20179;-43
2024/01/29 08:32:39;;;;;;;6.53;4.90;;;3.50;99.90;;;;;;5093481;28;20171;-42
2024/01/29 08:35:05;;;;;;;8.33;5.67;;;3.60;99.90;;;;;;5093157;28;20226;-42
2024/01/29 08:37:31;;;;;;;7.63;5.60;;;3.70;99.90;;;;;;5093345;28;20234;-41
2024/01/29 08:39:57;;;;;;;7.77;5.13;;;3.80;99.90;;;;;;5093712;28;20182;-42
2024/01/29 08:42:25;;;;;;;13.50;6.43;;;3.80;99.90;;;;;;5093416;28;20227;-40
2024/01/29 08:44:55;;;;;;;8.47;4.73;;;3.90;99.90;;;;;;5093461;28;20178;-41
2024/01/29 08:47:21;;;;;;;9.17;6.03;;;4.00;99.90;;;;;;5093640;28;20195;-43
2024/01/29 08:49:47;;;;;;;13.97;6.53;;;4.10;99.90;;;;;;5093380;28;20185;-41
2024/01/29 08:52:13;;;;;;;11.97;6.03;;;4.20;99.90;;;;;;5093589;28;20252;-48
2024/01/29 08:54:39;;;;;;;11.00;7.03;;;4.30;99.90;;;;;;5092408;28;20201;-48
2024/01/29 08:57:05;;;;;;;9.43;6.30;;;4.40;99.90;;;;;;5093059;28;20203;-48
2024/01/29 08:59:31;;;;;;;8.97;6.17;;;4.50;99.90;;;;;;5092381;28;20561;-48
2024/01/29 09:01:57;;;;;;;9.90;6.50;;;4.60;99.90;;;;;;5093499;28;20184;-49
2024/01/29 09:04:23;;;;;;;8.60;6.37;;;4.70;99.90;;;;;;5093346;28;20210;-48
2024/01/29 09:06:49;;;;;;;10.83;7.17;;;4.90;99.90;;;;;;5093214;28;20260;-49
2024/01/29 09:09:19;;;;;;;11.53;7.20;;;5.00;99.90;;;;;;5093260;28;20175;-47
2024/01/29 09:11:45;;;;;;;9.23;6.50;;;5.10;99.90;;;;;;5093488;28;20647;-48
2024/01/29 09:14:11;;;;;;;11.40;7.50;;;5.20;99.90;;;;;;5093166;28;20209;-47
2024/01/29 09:16:37;;;;;;;16.97;7.33;;;5.30;99.90;;;;;;5092032;28;20199;-48
2024/01/29 09:19:03;;;;;;;11.23;7.00;;;5.40;99.90;;;;;;5093363;28;20285;-47
2024/01/29 09:21:31;;;;;;;10.67;7.60;;;5.50;99.90;;;;;;5093029;28;20618;-47
2024/01/29 09:23:59;;;;;;;8.13;5.97;;;5.60;99.90;;;;;;5093154;28;20226;-48
2024/01/29 09:26:25;;;;;;;11.30;6.37;;;5.70;99.90;;;;;;5096886;28;20203;-46
2024/01/29 09:28:50;;;;;;;9.57;6.73;;;5.80;99.90;;;;;;5096812;28;20176;-46
2024/01/29 09:31:16;;;;;;;24.73;6.90;;;5.80;99.90;;;;;;5097049;28;20230;-47
2024/01/29 09:33:42;;;;;;;10.43;6.40;;;5.90;99.90;;;;;;5096764;28;20543;-47
2024/01/29 09:36:08;;;;;;;7.87;5.83;;;5.90;99.90;;;;;;5096369;28;20224;-47
2024/01/29 09:38:37;;;;;;;9.13;6.27;;;6.00;99.90;;;;;;5095684;28;20286;-46
2024/01/29 09:41:05;;;;;;;10.23;5.90;;;6.10;99.90;;;;;;5096629;28;20313;-49
2024/01/29 09:43:35;;;;;;;13.50;5.60;;;6.20;99.90;;;;;;5095685;28;20548;-47
2024/01/29 09:46:05;;;;;;;8.07;5.67;;;6.20;99.90;;;;;;5096427;28;20711;-47
2024/01/29 09:48:33;;;;;;;10.17;6.07;;;6.30;99.90;;;;;;5096426;28;20178;-48
2024/01/29 09:51:06;;;;;;;9.30;5.67;;;6.40;99.90;;;;;;5096392;28;20728;-46
2024/01/29 09:53:35;;;;;;;9.43;5.70;;;6.50;99.90;;;;;;5096614;28;20546;-47
2024/01/29 09:56:01;;;;;;;10.20;5.63;;;6.60;99.90;;;;;;5096262;28;20689;-47
2024/01/29 09:58:28;;;;;;;7.37;5.63;;;6.60;99.90;;;;;;5095071;28;20297;-47
2024/01/29 10:00:57;;;;;;;10.47;6.87;;;6.70;99.90;;;;;;5096201;28;20175;-46
2024/01/29 10:03:29;;;;;;;9.00;6.47;;;6.80;99.90;;;;;;5096214;28;20182;-47
2024/01/29 10:05:57;;;;;;;7.97;5.87;;;6.90;99.90;;;;;;5096265;28;20193;-48
2024/01/29 10:08:24;;;;;;;20.77;6.20;;;7.10;99.90;;;;;;5096046;28;20179;-48
2024/01/29 10:10:51;;;;;;;16.90;6.97;;;7.20;99.90;;;;;;5096851;28;20179;-47
2024/01/29 10:13:17;;;;;;;14.60;6.53;;;7.30;99.90;;;;;;5094840;28;20186;-47
2024/01/29 10:15:43;;;;;;;9.63;6.40;;;7.40;99.90;;;;;;5095948;28;20273;-47
2024/01/29 10:18:13;;;;;;;14.43;6.90;;;7.60;99.90;;;;;;5096141;28;20298;-49
2024/01/29 10:20:39;;;;;;;10.80;7.20;;;7.70;99.90;;;;;;5094418;28;20221;-47
2024/01/29 10:23:08;;;;;;;8.10;5.93;;;7.80;99.90;;;;;;5092824;28;20187;-48
2024/01/29 10:25:38;;;;;;;10.73;5.87;;;7.90;99.90;;;;;;5095740;28;20202;-49
2024/01/29 10:28:13;;;;;;;10.70;6.87;;;8.00;99.90;;;;;;5096211;28;20190;-47
2024/01/29 10:30:46;;;;;;;7.77;5.80;;;8.10;99.90;;;;;;5095700;28;20179;-46
2024/01/29 10:33:15;;;;;;;8.37;5.70;;;8.30;99.90;;;;;;5095871;28;20199;-49
2024/01/29 10:35:41;;;;;;;9.90;6.93;;;8.40;99.90;;;;;;5094976;28;20214;-47
2024/01/29 10:38:07;;;;;;;9.70;5.90;;;8.50;99.90;;;;;;5095683;28;20195;-48
2024/01/29 10:40:33;;;;;;;11.93;6.70;;;8.60;99.90;;;;;;5094621;28;20562;-48
2024/01/29 10:43:04;;;;;;;9.33;5.83;;;8.70;99.90;;;;;;5095462;28;20198;-47
2024/01/29 10:45:37;;;;;;;10.93;6.30;;;8.80;99.90;;;;;;5095305;28;20183;-46
2024/01/29 10:48:20;;;;;;;8.30;5.80;;;8.90;99.90;;;;;;5095729;28;20179;-48
2024/01/29 10:50:50;;;;;;;9.87;6.50;;;9.10;99.90;;;;;;5095596;28;20173;-47
2024/01/29 10:53:20;;;;;;;7.77;5.87;;;9.20;99.90;;;;;;5095552;28;20170;-48
2024/01/29 10:55:51;;;;;;;7.57;5.93;;;9.20;99.90;;;;;;5094957;28;20668;-46
2024/01/29 10:58:25;;;;;;;9.10;6.07;;;9.40;99.90;;;;;;5095410;28;20198;-48
2024/01/29 11:00:52;;;;;;;14.30;6.33;;;9.50;99.90;;;;;;5095183;28;20572;-48
2024/01/29 11:03:20;;;;;;;8.43;6.40;;;9.70;99.90;;;;;;5095179;28;20300;-48
2024/01/29 11:05:58;;;;;;;7.93;5.63;;;9.70;99.90;;;;;;5095114;28;20202;-49
2024/01/29 11:08:27;;;;;;;10.17;6.20;;;9.80;99.90;;;;;;5095300;28;20657;-47
2024/01/29 11:10:56;;;;;;;8.57;6.13;;;9.90;99.90;;;;;;5095129;28;20324;-48
2024/01/29 11:13:23;;;;;;;10.20;6.23;;;9.90;99.90;;;;;;5094771;28;20182;-47
2024/01/29 11:15:49;;;;;;;9.90;6.13;;;10.00;99.90;;;;;;5094799;28;20266;-46
2024/01/29 11:18:15;;;;;;;8.30;5.77;;;10.10;99.90;;;;;;5093424;28;20681;-47
2024/01/29 11:20:56;;;;;;;10.23;6.20;;;10.20;99.90;;;;;;5094695;28;20216;-47
2024/01/29 11:23:22;;;;;;;7.53;6.30;;;10.30;99.90;;;;;;5094744;28;20182;-49
2024/01/29 11:25:49;;;;;;;7.93;5.87;;;10.30;99.90;;;;;;5093416;28;20224;-48
2024/01/29 11:28:15;;;;;;;9.80;7.00;;;10.40;99.90;;;;;;5092856;28;20648;-48
2024/01/29 11:30:54;;;;;;;9.70;6.57;;;10.50;99.90;;;;;;5093407;28;20185;-48
2024/01/29 11:33:24;;;;;;;8.77;5.80;;;10.60;99.90;;;;;;5093391;28;20641;-48
2024/01/29 11:35:55;;;;;;;8.77;6.00;;;10.70;99.90;;;;;;5094243;28;20214;-47
2024/01/29 11:38:22;;;;;;;20.23;6.10;;;10.80;99.90;;;;;;5093604;28;20194;-48
2024/01/29 11:40:50;;;;;;;13.87;6.17;;;10.80;99.90;;;;;;5094578;28;20182;-49
2024/01/29 11:43:26;;;;;;;12.60;6.23;;;10.90;99.90;;;;;;5094297;28;20178;-48
2024/01/29 11:45:54;;;;;;;8.30;6.17;;;11.00;99.90;;;;;;5094773;28;20194;-49
2024/01/29 11:48:24;;;;;;;8.77;6.80;;;11.10;99.90;;;;;;5093929;28;20182;-44
2024/01/29 11:50:52;;;;;;;8.20;6.23;;;11.20;99.90;;;;;;5093217;28;20179;-41
2024/01/29 11:53:20;;;;;;;10.37;5.90;;;11.30;99.90;;;;;;5093131;28;20263;-45
2024/01/29 11:55:50;;;;;;;12.83;6.10;;;11.40;99.90;;;;;;5093958;28;20197;-44
2024/01/29 11:58:22;;;;;;;9.90;5.77;;;11.50;99.90;;;;;;5094272;28;20183;-43
2024/01/29 12:00:49;;;;;;;6.10;5.50;;;11.50;99.90;;;;;;5094050;28;20723;-41
2024/01/29 12:03:23;;;;;;;10.00;6.00;;;11.60;99.90;;;;;;5092718;28;20597;-43
2024/01/29 12:05:49;;;;;;;9.07;5.77;;;11.70;99.90;;;;;;5094080;28;20289;-41
2024/01/29 12:08:26;;;;;;;7.13;5.53;;;11.80;99.90;;;;;;5094108;28;20194;-43
2024/01/29 12:10:58;;;;;;;7.87;5.70;;;11.90;99.90;;;;;;5093000;28;20181;-42
2024/01/29 12:13:24;;;;;;;8.43;5.23;;;12.00;99.90;;;;;;5094129;28;20191;-43
2024/01/29 12:15:52;;;;;;;6.63;5.30;;;12.00;99.90;;;;;;5093641;28;20705;-43
2024/01/29 12:18:28;;;;;;;7.40;5.77;;;12.10;99.90;;;;;;5093534;28;20692;-43
2024/01/29 12:21:09;;;;;;;7.57;5.80;;;12.10;99.90;;;;;;5093756;28;20177;-43
2024/01/29 12:23:35;;;;;;;6.73;5.07;;;12.30;99.90;;;;;;5094268;28;20171;-41
2024/01/29 12:26:00;;;;;;;8.57;6.13;;;12.40;99.90;;;;;;5093496;28;20670;-43
2024/01/29 12:28:26;;;;;;;11.23;7.63;;;12.50;99.90;;;;;;5093463;28;20655;-40
2024/01/29 12:30:56;;;;;;;8.57;6.17;;;12.60;99.90;;;;;;5092079;28;20206;-43
2024/01/29 12:33:29;;;;;;;7.03;5.80;;;12.70;99.90;;;;;;5093866;28;20515;-42
2024/01/29 12:36:13;;;;;;;10.17;5.97;;;12.80;99.90;;;;;;5093366;28;20225;-43
2024/01/29 12:38:39;;;;;;;8.53;5.67;;;12.90;99.90;;;;;;5093354;28;20561;-42
2024/01/29 12:41:06;;;;;;;9.00;5.47;;;13.00;99.90;;;;;;5093360;28;20199;-44
2024/01/29 12:43:31;;;;;;;8.07;5.83;;;13.20;99.90;;;;;;5092107;28;20737;-45
2024/01/29 12:46:11;;;;;;;12.43;5.90;;;13.30;99.90;;;;;;5093305;28;20277;-44
2024/01/29 12:48:37;;;;;;;9.87;5.57;;;13.40;99.90;;;;;;5093693;28;20166;-43
2024/01/29 12:51:04;;;;;;;8.83;5.43;;;13.50;99.90;;;;;;5093339;28;20179;-44
2024/01/29 12:53:30;;;;;;;8.33;5.50;;;13.50;99.90;;;;;;5093526;28;20248;-42
2024/01/29 12:55:55;;;;;;;11.47;5.47;;;13.70;99.90;;;;;;5093336;28;20545;-43